Time;durP1;ratioP1;P1;durP2;ratioP2;P2;SDS_P1;SDS_P2;PMS_P1;PMS_P2;Temp;Humidity;BMP_temperature;BMP_pressure;BME280_temperature;BME280_humidity;BME280_pressure;Samples;Min_cycle;Max_cycle;Signal;HPM_P1;HPM_P2
2021/10/24 00:01:53;;;;;;;0.63;0.63;;;20.50;69.60;;;;;;5102847;28;20116;-35
2021/10/24 00:04:19;;;;;;;0.50;0.50;;;20.50;69.50;;;;;;5102909;28;20080;-35
2021/10/24 00:06:45;;;;;;;0.70;0.70;;;20.50;69.50;;;;;;5102346;28;20035;-35
2021/10/24 00:09:11;;;;;;;0.88;0.60;;;20.50;69.40;;;;;;5102725;28;20048;-35
2021/10/24 00:11:38;;;;;;;0.60;0.50;;;20.50;69.30;;;;;;5102833;28;20032;-35
2021/10/24 00:14:06;;;;;;;0.73;0.60;;;20.50;69.30;;;;;;5102721;28;20036;-35
2021/10/24 00:16:32;;;;;;;0.95;0.70;;;20.50;69.20;;;;;;5102975;28;20257;-35
2021/10/24 00:18:58;;;;;;;0.30;0.30;;;20.50;69.20;;;;;;5101258;28;20020;-35
2021/10/24 00:21:25;;;;;;;0.77;0.77;;;20.40;69.20;;;;;;5102725;28;20031;-35
2021/10/24 00:23:51;;;;;;;0.60;0.57;;;20.40;69.20;;;;;;5102668;28;20024;-35
2021/10/24 00:26:17;;;;;;;0.50;0.50;;;20.40;69.00;;;;;;5091727;28;20021;-35
2021/10/24 00:28:44;;;;;;;1.13;0.80;;;20.40;68.80;;;;;;5082182;28;20036;-35
2021/10/24 00:31:10;;;;;;;1.08;0.80;;;20.40;68.80;;;;;;5083220;28;20029;-35
2021/10/24 00:33:37;;;;;;;0.73;0.73;;;20.40;68.70;;;;;;5102563;28;20047;-35
2021/10/24 00:36:03;;;;;;;1.02;0.80;;;20.40;68.70;;;;;;5102584;28;20024;-35
2021/10/24 00:38:29;;;;;;;0.88;0.70;;;20.40;68.80;;;;;;5102363;28;20551;-35
2021/10/24 00:40:56;;;;;;;0.63;0.63;;;20.40;68.60;;;;;;5102665;28;20055;-36
2021/10/24 00:43:22;;;;;;;2.35;0.80;;;20.30;68.70;;;;;;5102704;28;20028;-35
2021/10/24 00:45:48;;;;;;;0.90;0.77;;;20.30;68.60;;;;;;5101082;28;20035;-35
2021/10/24 00:48:14;;;;;;;0.80;0.80;;;20.30;68.50;;;;;;5102431;28;20024;-35
2021/10/24 00:50:42;;;;;;;1.00;0.90;;;20.30;68.40;;;;;;5102293;28;20028;-35
2021/10/24 00:53:08;;;;;;;0.90;0.70;;;20.30;68.50;;;;;;5105226;28;20086;-35
2021/10/24 00:55:34;;;;;;;0.80;0.80;;;20.30;68.50;;;;;;5104708;28;20020;-35
2021/10/24 00:58:01;;;;;;;1.40;1.05;;;20.30;68.60;;;;;;5104530;28;20062;-35
2021/10/24 01:00:27;;;;;;;1.30;0.98;;;20.30;68.60;;;;;;5087810;28;20027;-35
2021/10/24 01:02:54;;;;;;;0.90;0.70;;;20.30;68.50;;;;;;5105956;28;20059;-35
2021/10/24 01:05:20;;;;;;;0.73;0.73;;;20.30;68.60;;;;;;5105880;28;20016;-35
2021/10/24 01:07:47;;;;;;;1.60;1.05;;;20.20;68.60;;;;;;5105500;28;20067;-36
2021/10/24 01:10:16;;;;;;;;;;;20.20;68.60;;;;;;5106392;28;20034;-35
2021/10/24 01:12:51;;;;;;;0.90;0.80;;;20.20;68.60;;;;;;5105646;28;19919;-35
2021/10/24 01:15:18;;;;;;;1.30;0.93;;;20.20;68.60;;;;;;5105711;28;20044;-35
2021/10/24 01:17:44;;;;;;;0.98;0.85;;;20.20;68.60;;;;;;5104178;28;20020;-35
2021/10/24 01:20:18;;;;;;;0.88;0.80;;;20.20;68.60;;;;;;5105705;28;20028;-35
2021/10/24 01:22:44;;;;;;;0.88;0.60;;;20.20;68.60;;;;;;5105687;28;20024;-35
2021/10/24 01:25:10;;;;;;;1.00;0.80;;;20.10;68.50;;;;;;5105272;28;20059;-35
2021/10/24 01:27:37;;;;;;;0.90;0.90;;;20.10;68.60;;;;;;5105173;28;20544;-35
2021/10/24 01:30:06;;;;;;;1.65;1.02;;;20.10;68.70;;;;;;5105489;28;20024;-35
2021/10/24 01:32:33;;;;;;;1.40;1.05;;;20.10;68.70;;;;;;5103884;28;20061;-36
2021/10/24 01:34:59;;;;;;;1.30;1.00;;;20.10;68.80;;;;;;5104812;28;20016;-35
2021/10/24 01:37:33;;;;;;;0.80;0.80;;;20.00;68.70;;;;;;5105424;28;20081;-35
2021/10/24 01:40:00;;;;;;;1.05;0.95;;;20.00;68.70;;;;;;5105163;28;20080;-35
2021/10/24 01:42:27;;;;;;;2.53;1.05;;;20.00;68.80;;;;;;5103742;28;20020;-36
2021/10/24 01:44:53;;;;;;;1.38;0.90;;;20.00;68.80;;;;;;5105316;28;20039;-35
2021/10/24 01:47:19;;;;;;;1.45;1.20;;;20.00;68.80;;;;;;5103935;28;20043;-35
2021/10/24 01:49:45;;;;;;;1.60;1.10;;;20.00;68.80;;;;;;5104796;28;20028;-35
2021/10/24 01:52:11;;;;;;;1.23;0.93;;;20.00;68.90;;;;;;5104995;28;20028;-35
2021/10/24 01:54:37;;;;;;;1.48;0.98;;;20.00;68.90;;;;;;5091998;28;20131;-35
2021/10/24 01:57:04;;;;;;;1.35;1.08;;;20.00;69.00;;;;;;5084544;28;20097;-35
2021/10/24 01:59:30;;;;;;;1.20;1.10;;;19.90;68.90;;;;;;5084546;28;20025;-35
2021/10/24 02:01:56;;;;;;;1.17;0.90;;;19.90;68.90;;;;;;5084556;28;20021;-35
2021/10/24 02:04:22;;;;;;;2.60;1.00;;;19.90;69.00;;;;;;5091957;28;20028;-35
2021/10/24 02:06:48;;;;;;;1.13;0.98;;;19.90;69.10;;;;;;5104841;28;20024;-35
2021/10/24 02:09:14;;;;;;;1.38;1.27;;;19.90;69.10;;;;;;5104217;28;20044;-35
2021/10/24 02:11:41;;;;;;;0.93;0.93;;;19.80;69.10;;;;;;5104762;28;20020;-35
2021/10/24 02:14:07;;;;;;;1.10;1.00;;;19.80;69.20;;;;;;5104182;28;20035;-35
2021/10/24 02:16:33;;;;;;;0.82;0.82;;;19.80;69.20;;;;;;5104512;28;20035;-35
2021/10/24 02:18:59;;;;;;;1.20;1.10;;;19.80;69.20;;;;;;5104265;28;20024;-35
2021/10/24 02:21:25;;;;;;;1.27;0.98;;;19.80;69.20;;;;;;5102950;28;20103;-35
2021/10/24 02:23:52;;;;;;;1.90;1.27;;;19.80;69.30;;;;;;5097017;28;20122;-35
2021/10/24 02:26:18;;;;;;;1.08;0.93;;;19.80;69.30;;;;;;5084173;28;20028;-35
2021/10/24 02:28:44;;;;;;;1.25;1.13;;;19.70;69.30;;;;;;5083811;28;20040;-36
2021/10/24 02:31:10;;;;;;;1.10;0.90;;;19.70;69.30;;;;;;5084058;28;20024;-35
2021/10/24 02:33:36;;;;;;;3.03;1.35;;;19.70;69.20;;;;;;5086028;28;20044;-35
2021/10/24 02:36:02;;;;;;;1.13;1.00;;;19.70;69.30;;;;;;5104117;28;20031;-35
2021/10/24 02:38:29;;;;;;;3.00;1.20;;;19.70;69.50;;;;;;5103834;28;20016;-36
2021/10/24 02:40:55;;;;;;;1.10;1.00;;;19.70;69.40;;;;;;5103841;28;20020;-35
2021/10/24 02:43:21;;;;;;;1.30;1.20;;;19.60;69.40;;;;;;5102833;28;20127;-35
2021/10/24 02:45:47;;;;;;;1.73;1.27;;;19.60;69.50;;;;;;5104227;28;20024;-35
2021/10/24 02:48:13;;;;;;;1.25;1.15;;;19.60;69.60;;;;;;5103996;28;20070;-35
2021/10/24 02:50:40;;;;;;;1.33;1.17;;;19.60;69.60;;;;;;5103641;28;20030;-35
2021/10/24 02:53:06;;;;;;;1.48;1.10;;;19.60;69.60;;;;;;5103581;28;20040;-35
2021/10/24 02:55:32;;;;;;;1.80;1.17;;;19.60;69.60;;;;;;5083397;28;20397;-35
2021/10/24 02:57:58;;;;;;;1.45;1.30;;;19.60;69.70;;;;;;5083514;28;20035;-35
2021/10/24 03:00:24;;;;;;;1.27;1.17;;;19.50;69.60;;;;;;5082143;28;20030;-35
2021/10/24 03:02:50;;;;;;;1.30;1.20;;;19.50;69.60;;;;;;5083257;28;20028;-35
2021/10/24 03:05:17;;;;;;;1.83;1.15;;;19.50;69.70;;;;;;5099212;28;20052;-35
2021/10/24 03:07:43;;;;;;;1.20;1.10;;;19.50;69.80;;;;;;5103488;28;20105;-35
2021/10/24 03:10:10;;;;;;;1.30;1.20;;;19.50;69.70;;;;;;5103508;28;20020;-35
2021/10/24 03:12:36;;;;;;;1.40;1.20;;;19.50;69.80;;;;;;5103283;28;20027;-35
2021/10/24 03:15:02;;;;;;;1.60;1.42;;;19.40;69.70;;;;;;5103423;28;20044;-35
2021/10/24 03:17:28;;;;;;;2.75;1.30;;;19.40;69.70;;;;;;5103464;28;20577;-35
2021/10/24 03:19:54;;;;;;;1.60;1.48;;;19.40;69.70;;;;;;5103320;28;20085;-35
2021/10/24 03:22:21;;;;;;;1.73;1.45;;;19.40;69.90;;;;;;5103251;28;20028;-35
2021/10/24 03:24:47;;;;;;;1.40;1.30;;;19.40;69.90;;;;;;5103332;28;20115;-36
2021/10/24 03:27:13;;;;;;;1.40;1.30;;;19.40;69.90;;;;;;5103424;28;20020;-35
2021/10/24 03:29:39;;;;;;;1.45;1.25;;;19.40;70.00;;;;;;5102123;28;20024;-35
2021/10/24 03:32:06;;;;;;;1.48;1.38;;;19.40;70.00;;;;;;5103138;28;20087;-35
2021/10/24 03:34:32;;;;;;;1.83;1.27;;;19.30;70.00;;;;;;5103103;28;20035;-35
2021/10/24 03:36:58;;;;;;;1.40;1.23;;;19.30;70.00;;;;;;5103331;28;20252;-35
2021/10/24 03:39:24;;;;;;;1.60;1.30;;;19.30;70.00;;;;;;5101866;28;20032;-35
2021/10/24 03:41:50;;;;;;;1.45;1.33;;;19.30;70.00;;;;;;5103095;28;20084;-36
2021/10/24 03:44:16;;;;;;;1.80;1.20;;;19.30;70.00;;;;;;5103128;28;20092;-35
2021/10/24 03:46:43;;;;;;;2.03;1.52;;;19.20;70.10;;;;;;5103085;28;20028;-35
2021/10/24 03:49:09;;;;;;;1.50;1.30;;;19.20;70.20;;;;;;5102994;28;20024;-36
2021/10/24 03:51:35;;;;;;;2.22;1.58;;;19.20;70.20;;;;;;5102092;28;20083;-35
2021/10/24 03:54:01;;;;;;;1.58;1.48;;;19.20;70.20;;;;;;5094781;28;20033;-35
2021/10/24 03:56:27;;;;;;;1.80;1.48;;;19.20;70.20;;;;;;5082850;28;20058;-35
2021/10/24 03:58:53;;;;;;;1.60;1.50;;;19.20;70.30;;;;;;5082897;28;20400;-35
2021/10/24 04:01:19;;;;;;;1.40;1.30;;;19.20;70.30;;;;;;5082820;28;20084;-36
2021/10/24 04:03:46;;;;;;;1.30;1.20;;;19.10;70.40;;;;;;5085643;28;20028;-35
2021/10/24 04:06:12;;;;;;;1.33;1.20;;;19.10;71.10;;;;;;5102788;28;20055;-35
2021/10/24 04:08:38;;;;;;;1.40;1.30;;;19.10;70.40;;;;;;5102540;28;20108;-35
2021/10/24 04:11:04;;;;;;;1.63;1.40;;;19.10;70.50;;;;;;5103041;28;20024;-35
2021/10/24 04:13:30;;;;;;;1.55;1.45;;;19.10;70.60;;;;;;5102505;28;20040;-35
2021/10/24 04:15:57;;;;;;;2.17;1.48;;;19.10;70.50;;;;;;5090010;28;20056;-35
2021/10/24 04:18:23;;;;;;;1.73;1.50;;;19.00;70.50;;;;;;5082781;28;20560;-35
2021/10/24 04:20:49;;;;;;;1.50;1.40;;;19.00;70.50;;;;;;5082483;28;20074;-35
2021/10/24 04:23:15;;;;;;;2.20;1.50;;;19.00;70.60;;;;;;5083521;28;20568;-35
2021/10/24 04:25:41;;;;;;;1.65;1.48;;;19.00;70.60;;;;;;5102561;28;20035;-35
2021/10/24 04:28:07;;;;;;;1.77;1.67;;;19.00;70.60;;;;;;5106139;28;20497;-35
2021/10/24 04:30:33;;;;;;;1.85;1.63;;;19.00;70.60;;;;;;5106855;28;20035;-35
2021/10/24 04:32:59;;;;;;;1.50;1.40;;;19.00;70.70;;;;;;5106288;28;20077;-35
2021/10/24 04:35:26;;;;;;;1.77;1.63;;;19.00;70.70;;;;;;5106383;28;20028;-35
2021/10/24 04:37:52;;;;;;;2.42;1.85;;;18.90;70.70;;;;;;5102318;28;20060;-35
2021/10/24 04:40:18;;;;;;;2.85;1.50;;;18.90;70.80;;;;;;5106521;28;20042;-35
2021/10/24 04:42:44;;;;;;;1.85;1.63;;;18.90;70.80;;;;;;5106257;28;20111;-35
2021/10/24 04:45:10;;;;;;;1.63;1.52;;;18.90;70.80;;;;;;5106426;28;20039;-35
2021/10/24 04:47:37;;;;;;;1.88;1.67;;;18.90;70.80;;;;;;5105170;28;20034;-35
2021/10/24 04:50:06;;;;;;;1.80;1.60;;;18.90;70.90;;;;;;5106241;28;20035;-35
2021/10/24 04:52:32;;;;;;;1.60;1.42;;;18.90;70.90;;;;;;5106200;28;20028;-35
2021/10/24 04:54:58;;;;;;;1.83;1.73;;;18.90;71.00;;;;;;5105818;28;20095;-35
2021/10/24 04:57:24;;;;;;;1.73;1.58;;;18.80;71.10;;;;;;5106266;28;20024;-36
2021/10/24 04:59:50;;;;;;;1.65;1.55;;;18.80;71.00;;;;;;5104788;28;20024;-35
2021/10/24 05:02:17;;;;;;;1.85;1.70;;;18.80;71.10;;;;;;5106115;28;20087;-35
2021/10/24 05:04:43;;;;;;;1.70;1.60;;;18.80;71.10;;;;;;5105137;28;20087;-35
2021/10/24 05:07:09;;;;;;;1.83;1.38;;;18.80;71.10;;;;;;5105972;28;20676;-36
2021/10/24 05:09:35;;;;;;;1.75;1.50;;;18.70;71.10;;;;;;5106038;28;20089;-35
2021/10/24 05:12:01;;;;;;;2.10;1.90;;;18.80;71.10;;;;;;5105604;28;20024;-35
2021/10/24 05:14:27;;;;;;;2.13;1.60;;;18.70;71.10;;;;;;5105631;28;20039;-35
2021/10/24 05:16:53;;;;;;;2.10;1.80;;;18.70;71.20;;;;;;5106037;28;20169;-35
2021/10/24 05:19:20;;;;;;;1.70;1.50;;;18.70;71.20;;;;;;5105566;28;20017;-34
2021/10/24 05:21:46;;;;;;;1.60;1.50;;;18.70;71.20;;;;;;5105728;28;20036;-35
2021/10/24 05:24:12;;;;;;;1.63;1.52;;;18.70;71.30;;;;;;5105390;28;20036;-35
2021/10/24 05:26:38;;;;;;;2.30;1.73;;;18.70;71.30;;;;;;5105475;28;20024;-35
2021/10/24 05:29:04;;;;;;;2.20;1.92;;;18.70;71.30;;;;;;5105751;28;20069;-35
2021/10/24 05:31:30;;;;;;;2.10;1.42;;;18.60;71.40;;;;;;5105657;28;20058;-36
2021/10/24 05:33:57;;;;;;;2.08;1.88;;;18.60;71.30;;;;;;5105160;28;20036;-35
2021/10/24 05:36:23;;;;;;;2.20;1.90;;;18.60;71.40;;;;;;5105561;28;20489;-35
2021/10/24 05:38:50;;;;;;;1.88;1.70;;;18.60;71.40;;;;;;5105144;28;20036;-35
2021/10/24 05:41:16;;;;;;;2.40;1.93;;;18.60;71.40;;;;;;5105404;28;20087;-35
2021/10/24 05:43:42;;;;;;;3.03;2.00;;;18.60;71.40;;;;;;5105093;28;20807;-35
2021/10/24 05:46:09;;;;;;;2.00;1.80;;;18.50;71.50;;;;;;5105380;28;20016;-34
2021/10/24 05:48:35;;;;;;;2.20;2.00;;;18.50;71.50;;;;;;5103731;28;20020;-35
2021/10/24 05:51:02;;;;;;;3.63;1.60;;;18.50;71.50;;;;;;5104970;28;20045;-35
2021/10/24 05:53:28;;;;;;;2.08;1.85;;;18.50;71.50;;;;;;5101998;28;20473;-35
2021/10/24 05:55:54;;;;;;;2.13;1.92;;;18.50;71.50;;;;;;5084638;28;20035;-35
2021/10/24 05:58:20;;;;;;;2.85;1.98;;;18.50;71.50;;;;;;5084678;28;20028;-35
2021/10/24 06:00:47;;;;;;;2.15;1.85;;;18.50;71.50;;;;;;5090391;28;20085;-35
2021/10/24 06:03:13;;;;;;;1.75;1.65;;;18.50;71.60;;;;;;5104515;28;20036;-36
2021/10/24 06:05:40;;;;;;;2.58;1.63;;;18.50;71.60;;;;;;5104680;28;20020;-35
2021/10/24 06:08:06;;;;;;;2.17;1.98;;;18.40;71.60;;;;;;5104739;28;20048;-35
2021/10/24 06:10:38;;;;;;;1.90;1.70;;;18.40;71.60;;;;;;5104767;28;20136;-35
2021/10/24 06:13:04;;;;;;;2.65;1.77;;;18.40;71.70;;;;;;5103273;28;20112;-34
2021/10/24 06:15:32;;;;;;;2.33;1.83;;;18.40;71.70;;;;;;5088737;28;20055;-35
2021/10/24 06:17:58;;;;;;;2.22;2.00;;;18.40;71.80;;;;;;5084283;28;20043;-35
2021/10/24 06:20:25;;;;;;;2.83;1.90;;;18.40;71.80;;;;;;5084146;28;20478;-35
2021/10/24 06:22:51;;;;;;;2.00;1.80;;;18.40;71.80;;;;;;5084319;28;20020;-35
2021/10/24 06:25:17;;;;;;;2.13;1.88;;;18.40;71.90;;;;;;5102215;28;20032;-35
2021/10/24 06:27:43;;;;;;;1.80;1.60;;;18.30;71.90;;;;;;5104477;28;20088;-35
2021/10/24 06:30:12;;;;;;;1.85;1.73;;;18.30;71.90;;;;;;5104472;28;20020;-35
2021/10/24 06:32:38;;;;;;;2.03;1.70;;;18.30;71.90;;;;;;5104397;28;20388;-35
2021/10/24 06:35:05;;;;;;;2.13;1.80;;;18.30;71.90;;;;;;5103477;28;20024;-35
2021/10/24 06:37:42;;;;;;;2.10;1.90;;;18.30;71.90;;;;;;5102850;28;20020;-35
2021/10/24 06:40:08;;;;;;;2.78;2.00;;;18.30;71.90;;;;;;5104192;28;20028;-35
2021/10/24 06:42:35;;;;;;;3.03;1.98;;;18.20;71.90;;;;;;5104233;28;20024;-35
2021/10/24 06:45:01;;;;;;;3.40;2.38;;;18.20;71.90;;;;;;5102627;28;20036;-36
2021/10/24 06:47:27;;;;;;;2.25;1.85;;;18.20;72.00;;;;;;5104136;28;20047;-35
2021/10/24 06:49:53;;;;;;;3.47;2.13;;;18.20;72.00;;;;;;5103390;28;20024;-35
2021/10/24 06:52:19;;;;;;;2.00;1.77;;;18.20;72.00;;;;;;5102436;28;20397;-35
2021/10/24 06:54:46;;;;;;;2.40;1.95;;;18.20;72.00;;;;;;5089658;28;20028;-35
2021/10/24 06:57:12;;;;;;;2.03;1.80;;;18.20;72.10;;;;;;5083607;28;20025;-36
2021/10/24 06:59:42;;;;;;;2.15;1.85;;;18.20;72.10;;;;;;5083825;28;20567;-35
2021/10/24 07:02:09;;;;;;;2.25;1.90;;;18.20;72.10;;;;;;5083589;28;20051;-35
2021/10/24 07:04:35;;;;;;;2.00;1.80;;;18.10;72.10;;;;;;5093003;28;20023;-36
2021/10/24 07:07:01;;;;;;;2.08;1.73;;;18.10;72.10;;;;;;5103934;28;20102;-35
2021/10/24 07:09:27;;;;;;;2.67;1.90;;;18.10;72.20;;;;;;5085573;28;20595;-36
2021/10/24 07:11:54;;;;;;;2.33;2.10;;;18.10;72.20;;;;;;5103864;28;20028;-35
2021/10/24 07:14:20;;;;;;;2.65;1.90;;;18.10;72.30;;;;;;5103709;28;20139;-35
2021/10/24 07:16:46;;;;;;;3.05;2.30;;;18.10;72.30;;;;;;5103531;28;20031;-35
2021/10/24 07:19:12;;;;;;;2.65;1.98;;;18.00;72.30;;;;;;5102204;28;20155;-35
2021/10/24 07:21:38;;;;;;;2.53;1.90;;;18.00;72.30;;;;;;5103595;28;20024;-35
2021/10/24 07:24:04;;;;;;;3.05;2.40;;;18.00;72.30;;;;;;5103741;28;20124;-35
2021/10/24 07:26:31;;;;;;;2.57;1.93;;;18.00;72.30;;;;;;5102628;28;20020;-35
2021/10/24 07:28:58;;;;;;;3.10;2.30;;;18.00;72.30;;;;;;5103511;28;20024;-35
2021/10/24 07:31:25;;;;;;;2.15;1.98;;;18.00;72.40;;;;;;5103385;28;20028;-35
2021/10/24 07:33:51;;;;;;;2.92;1.83;;;18.00;72.40;;;;;;5103457;28;20521;-36
2021/10/24 07:36:18;;;;;;;2.78;1.95;;;18.00;72.50;;;;;;5101999;28;20028;-35
2021/10/24 07:38:44;;;;;;;2.72;1.90;;;18.00;72.40;;;;;;5103548;28;20024;-35
2021/10/24 07:41:11;;;;;;;3.17;2.35;;;17.90;72.40;;;;;;5103464;28;20016;-35
2021/10/24 07:43:37;;;;;;;2.47;1.83;;;17.90;72.40;;;;;;5103411;28;20093;-35
2021/10/24 07:46:04;;;;;;;3.42;2.25;;;17.90;72.50;;;;;;5103119;28;20051;-35
2021/10/24 07:48:30;;;;;;;3.22;2.38;;;17.90;72.60;;;;;;5103311;28;20032;-35
2021/10/24 07:50:56;;;;;;;2.67;2.13;;;17.90;72.50;;;;;;5103236;28;20020;-35
2021/10/24 07:53:26;;;;;;;3.17;2.05;;;17.90;72.60;;;;;;5100947;28;20091;-35
2021/10/24 07:55:53;;;;;;;3.08;2.50;;;17.90;72.60;;;;;;5082808;28;20053;-35
2021/10/24 07:58:20;;;;;;;2.70;2.15;;;17.90;72.60;;;;;;5083188;28;20135;-35
2021/10/24 08:00:47;;;;;;;3.30;2.35;;;17.80;72.60;;;;;;5087031;28;20027;-35
2021/10/24 08:03:14;;;;;;;3.38;2.25;;;17.90;72.70;;;;;;5106579;28;20449;-35
2021/10/24 08:05:40;;;;;;;2.70;2.30;;;17.80;73.40;;;;;;5106989;28;20012;-35
2021/10/24 08:08:06;;;;;;;2.85;2.03;;;17.80;72.60;;;;;;5107338;28;20052;-35
2021/10/24 08:10:32;;;;;;;3.10;2.13;;;17.80;72.60;;;;;;5107334;28;20034;-35
2021/10/24 08:12:58;;;;;;;3.70;2.50;;;17.80;72.70;;;;;;5107063;28;20036;-39
2021/10/24 08:15:25;;;;;;;2.80;2.47;;;17.80;72.70;;;;;;5107211;28;20031;-35
2021/10/24 08:17:51;;;;;;;2.50;2.27;;;17.80;72.70;;;;;;5106848;28;20083;-35
2021/10/24 08:20:18;;;;;;;3.83;2.50;;;17.80;72.80;;;;;;5107073;28;20114;-35
2021/10/24 08:22:44;;;;;;;2.70;2.45;;;17.80;72.70;;;;;;5105243;28;20012;-35
2021/10/24 08:25:10;;;;;;;2.42;2.10;;;17.70;72.70;;;;;;5105554;28;20039;-36
2021/10/24 08:27:37;;;;;;;2.85;2.30;;;17.70;72.80;;;;;;5103859;28;20039;-35
2021/10/24 08:30:06;;;;;;;2.90;2.35;;;17.70;72.80;;;;;;5105260;28;20059;-35
2021/10/24 08:32:33;;;;;;;2.75;2.33;;;17.70;72.80;;;;;;5106905;28;20723;-35
2021/10/24 08:35:00;;;;;;;2.35;2.15;;;17.70;72.90;;;;;;5092039;28;20028;-35
2021/10/24 08:37:26;;;;;;;2.85;2.45;;;17.70;72.90;;;;;;5086179;28;20115;-35
2021/10/24 08:39:53;;;;;;;2.33;2.13;;;17.70;72.90;;;;;;5086591;28;20037;-35
2021/10/24 08:42:27;;;;;;;2.78;2.15;;;17.70;73.00;;;;;;5086229;28;20024;-36
2021/10/24 08:44:56;;;;;;;2.83;2.15;;;17.60;73.00;;;;;;5086438;28;20025;-35
2021/10/24 08:47:24;;;;;;;2.60;2.20;;;17.60;72.90;;;;;;5086103;28;20489;-35
2021/10/24 08:49:50;;;;;;;3.95;2.17;;;17.60;73.00;;;;;;5086025;28;20028;-35
2021/10/24 08:52:17;;;;;;;2.95;2.33;;;17.60;73.00;;;;;;5086273;28;20052;-35
2021/10/24 08:54:43;;;;;;;;;;;17.60;73.00;;;;;;5098850;28;20081;-35
2021/10/24 08:57:09;;;;;;;2.85;2.40;;;17.60;73.00;;;;;;5106033;28;19908;-35
2021/10/24 08:59:37;;;;;;;3.47;2.47;;;17.60;73.00;;;;;;5106380;28;20020;-35
2021/10/24 09:02:04;;;;;;;3.03;2.33;;;17.60;73.00;;;;;;5104837;28;20036;-35
2021/10/24 09:04:30;;;;;;;3.65;2.63;;;17.50;73.00;;;;;;5106261;28;20484;-38
2021/10/24 09:07:00;;;;;;;3.90;2.30;;;17.50;73.00;;;;;;5106176;28;20028;-35
2021/10/24 09:09:31;;;;;;;3.05;1.90;;;17.50;73.00;;;;;;5087247;28;20846;-35
2021/10/24 09:12:08;;;;;;;4.53;2.47;;;17.50;73.00;;;;;;5103593;28;20108;-35
2021/10/24 09:14:42;;;;;;;4.05;2.70;;;17.50;73.00;;;;;;5104574;28;20111;-35
2021/10/24 09:17:10;;;;;;;2.70;2.38;;;17.50;73.10;;;;;;5104701;28;20022;-35
2021/10/24 09:19:39;;;;;;;2.78;2.38;;;17.50;73.00;;;;;;5099014;28;20371;-35
2021/10/24 09:22:20;;;;;;;3.17;2.53;;;17.50;73.10;;;;;;5084794;28;20024;-35
2021/10/24 09:25:17;;;;;;;2.95;2.40;;;17.50;73.10;;;;;;5098345;28;20028;-35
2021/10/24 09:27:57;;;;;;;4.75;2.38;;;17.40;73.10;;;;;;5104436;28;20023;-35
2021/10/24 09:30:28;;;;;;;3.45;2.47;;;17.40;73.10;;;;;;5104781;28;20020;-35
2021/10/24 09:32:55;;;;;;;4.18;2.58;;;17.40;73.20;;;;;;5104350;28;20055;-35
2021/10/24 09:35:23;;;;;;;;;;;17.40;73.10;;;;;;5105110;28;20027;-35
2021/10/24 09:37:49;;;;;;;2.90;2.30;;;17.40;73.20;;;;;;5104655;28;19908;-35
2021/10/24 09:40:16;;;;;;;4.70;3.00;;;17.40;73.20;;;;;;5104498;28;20028;-36
2021/10/24 09:42:42;;;;;;;;;;;17.40;73.20;;;;;;5104891;28;20024;-35
2021/10/24 09:45:13;;;;;;;2.90;2.20;;;17.40;73.30;;;;;;5103119;28;19904;-35
2021/10/24 09:47:46;;;;;;;3.53;2.53;;;17.40;73.30;;;;;;5104235;28;20028;-35
2021/10/24 09:50:35;;;;;;;2.75;2.15;;;17.30;73.30;;;;;;5104424;28;20051;-36
2021/10/24 09:53:11;;;;;;;;;;;17.40;73.30;;;;;;5103305;28;20035;-44
2021/10/24 09:55:48;;;;;;;4.55;2.80;;;17.30;73.30;;;;;;5099794;28;19935;-35
2021/10/24 09:58:15;;;;;;;3.55;2.30;;;17.30;73.40;;;;;;5104110;28;20020;-35
2021/10/24 10:00:42;;;;;;;2.83;2.40;;;17.30;73.40;;;;;;5104295;28;20801;-35
2021/10/24 10:03:09;;;;;;;3.75;2.50;;;17.30;73.40;;;;;;5104200;28;20028;-35
2021/10/24 10:05:39;;;;;;;3.00;2.55;;;17.30;73.40;;;;;;5104177;28;20031;-35
2021/10/24 10:08:09;;;;;;;4.05;2.65;;;17.30;73.40;;;;;;5031087;28;2041660;-35
2021/10/24 10:10:40;;;;;;;3.72;2.60;;;17.30;73.50;;;;;;5105038;28;20051;-35
2021/10/24 10:13:11;;;;;;;4.03;2.60;;;17.30;73.50;;;;;;5103579;28;20036;-35
2021/10/24 10:15:45;;;;;;;3.58;2.60;;;17.20;73.50;;;;;;5079496;28;20024;-35
2021/10/24 10:18:11;;;;;;;4.32;2.75;;;17.20;73.50;;;;;;5082955;28;20041;-35
2021/10/24 10:20:48;;;;;;;3.13;2.53;;;17.20;73.50;;;;;;5098568;28;20796;-35
2021/10/24 10:23:15;;;;;;;4.22;2.58;;;17.20;73.50;;;;;;5103466;28;20028;-35
2021/10/24 10:25:42;;;;;;;4.43;2.75;;;17.10;73.50;;;;;;5092905;28;20032;-35
2021/10/24 10:28:11;;;;;;;3.22;2.47;;;17.10;73.50;;;;;;5104685;28;20012;-36
2021/10/24 10:30:42;;;;;;;4.05;2.67;;;17.10;73.50;;;;;;5103375;28;20032;-36
2021/10/24 10:33:27;;;;;;;2.95;2.40;;;17.10;73.60;;;;;;5104638;28;20039;-35
2021/10/24 10:35:54;;;;;;;2.90;2.58;;;17.10;73.60;;;;;;5104339;28;20112;-36
2021/10/24 10:38:37;;;;;;;2.83;2.55;;;17.10;73.70;;;;;;5104356;28;20035;-35
2021/10/24 10:41:04;;;;;;;3.13;2.38;;;17.10;73.70;;;;;;5104407;28;20032;-35
2021/10/24 10:43:32;;;;;;;3.97;2.67;;;17.10;73.80;;;;;;5104420;28;20022;-35
2021/10/24 10:46:02;;;;;;;3.00;2.53;;;17.10;73.80;;;;;;5104313;28;20058;-35
2021/10/24 10:48:28;;;;;;;2.67;2.20;;;17.10;73.80;;;;;;5104110;28;20088;-35
2021/10/24 10:51:29;;;;;;;4.80;3.15;;;17.10;73.80;;;;;;5103988;28;20027;-36
2021/10/24 10:54:01;;;;;;;3.85;2.72;;;17.00;73.90;;;;;;5041183;28;20056;-35
2021/10/24 10:56:28;;;;;;;2.58;2.35;;;17.00;73.70;;;;;;5040927;28;20737;-36
2021/10/24 10:58:55;;;;;;;3.72;2.72;;;17.00;73.80;;;;;;5041217;28;20045;-35
2021/10/24 11:01:34;;;;;;;3.55;2.90;;;17.00;73.80;;;;;;5041082;28;20105;-35
2021/10/24 11:04:09;;;;;;;2.80;2.40;;;17.00;73.80;;;;;;5041128;28;20061;-35
2021/10/24 11:06:37;;;;;;;3.38;2.50;;;16.90;73.80;;;;;;5041205;28;20033;-35
2021/10/24 11:09:11;;;;;;;4.18;2.85;;;16.90;73.80;;;;;;5040695;28;20049;-35
2021/10/24 11:11:40;;;;;;;3.53;2.47;;;17.00;73.80;;;;;;5040947;28;20060;-39
2021/10/24 11:14:15;;;;;;;3.15;2.75;;;16.90;73.90;;;;;;5041031;28;20513;-35
2021/10/24 11:16:55;;;;;;;3.60;2.80;;;16.90;73.90;;;;;;5024348;28;20044;-35
2021/10/24 11:19:28;;;;;;;3.60;2.58;;;16.90;73.90;;;;;;5040459;28;20114;-36
2021/10/24 11:22:01;;;;;;;4.00;2.95;;;16.90;74.00;;;;;;5040883;28;20091;-36
2021/10/24 11:24:27;;;;;;;3.33;2.67;;;16.90;74.10;;;;;;5040884;28;20037;-36
2021/10/24 11:26:57;;;;;;;3.33;2.83;;;16.90;74.00;;;;;;5040857;28;20045;-35
2021/10/24 11:29:23;;;;;;;4.85;2.95;;;16.80;73.90;;;;;;5069360;28;20040;-35
2021/10/24 11:32:09;;;;;;;3.25;2.78;;;16.90;74.10;;;;;;5103647;28;20031;-36
2021/10/24 11:34:35;;;;;;;3.05;2.50;;;16.90;74.00;;;;;;5103563;28;20028;-36
2021/10/24 11:37:01;;;;;;;2.67;2.42;;;16.80;74.00;;;;;;5103632;28;20438;-36
2021/10/24 11:39:28;;;;;;;2.88;2.58;;;16.80;74.00;;;;;;5103254;28;20063;-36
2021/10/24 11:42:27;;;;;;;4.00;2.90;;;16.80;74.00;;;;;;5103485;28;20552;-35
2021/10/24 11:44:53;;;;;;;4.03;2.67;;;16.80;74.10;;;;;;5020775;28;20438;-36
2021/10/24 11:47:19;;;;;;;3.38;2.50;;;16.80;74.10;;;;;;5020383;28;20058;-36
2021/10/24 11:49:49;;;;;;;4.10;3.00;;;16.80;74.00;;;;;;5004502;28;20032;-35
2021/10/24 11:52:42;;;;;;;3.47;2.80;;;16.80;74.10;;;;;;5020820;28;20030;-36
2021/10/24 11:55:11;;;;;;;3.60;2.80;;;16.80;74.00;;;;;;5019727;28;20037;-36
2021/10/24 12:03:02;;;;;;;4.00;2.95;;;16.70;74.10;;;;;;5005712;28;20029;-36
2021/10/24 12:05:30;;;;;;;3.47;2.75;;;16.70;74.10;;;;;;5020746;28;20029;-36
2021/10/24 12:07:57;;;;;;;;;;;16.70;74.20;;;;;;5004668;28;20048;-36
2021/10/24 12:10:56;;;;;;;3.70;2.80;;;16.70;74.20;;;;;;5020332;28;19909;-36
2021/10/24 12:13:35;;;;;;;;;;;16.70;74.20;;;;;;5018142;28;20044;-35
2021/10/24 12:16:02;;;;;;;3.88;2.80;;;16.70;74.20;;;;;;5020416;28;19905;-35
2021/10/24 12:18:29;;;;;;;3.10;2.80;;;16.70;74.20;;;;;;5004569;28;20058;-35
2021/10/24 12:20:58;;;;;;;4.38;2.78;;;16.70;74.20;;;;;;5060322;28;20063;-35
2021/10/24 12:23:34;;;;;;;3.63;3.08;;;16.70;74.20;;;;;;5085533;28;20036;-36
2021/10/24 12:26:04;;;;;;;3.35;2.80;;;16.60;74.20;;;;;;5102920;28;20069;-35
2021/10/24 12:28:34;;;;;;;4.38;3.17;;;16.60;74.20;;;;;;5103084;28;20035;-35
2021/10/24 12:31:05;;;;;;;3.92;2.80;;;16.60;74.30;;;;;;5102973;28;20028;-36
2021/10/24 12:33:36;;;;;;;3.70;3.03;;;16.60;74.30;;;;;;5103049;28;20091;-35
2021/10/24 12:36:07;;;;;;;3.63;2.78;;;16.60;74.30;;;;;;5103118;28;20123;-36
2021/10/24 12:38:55;;;;;;;3.70;2.80;;;16.60;74.30;;;;;;5097550;28;20107;-36
2021/10/24 12:41:41;;;;;;;3.70;3.03;;;16.60;74.30;;;;;;5102793;28;20051;-36
2021/10/24 12:44:11;;;;;;;3.47;2.90;;;16.60;74.30;;;;;;5103059;28;20028;-35
2021/10/24 12:46:38;;;;;;;4.65;3.25;;;16.50;74.30;;;;;;5103100;28;20070;-36
2021/10/24 12:49:12;;;;;;;3.75;2.65;;;16.60;74.40;;;;;;5104421;28;20024;-36
2021/10/24 12:51:38;;;;;;;3.50;2.75;;;16.60;74.30;;;;;;5106462;28;20026;-35
2021/10/24 12:54:05;;;;;;;3.65;2.75;;;16.50;74.30;;;;;;5106502;28;20036;-35
2021/10/24 12:56:33;;;;;;;3.40;2.83;;;16.50;74.40;;;;;;5106350;28;20043;-36
2021/10/24 12:58:59;;;;;;;4.63;3.50;;;16.50;74.40;;;;;;5088053;28;20050;-36